Terminal Aerodrome Forecast
Issued by NWS

Home | Current Version | Previous Version | Text Only | Print | Product List | Glossary On
Versions: 1 2 3 4 5 6 7 8 9 10 11 12 13 14 15 16 17 18 19 20 21 22 23 24 25 26 27 28 29 30 31 32 33 34
000
FTUS41 KBGM 160500
TAFRME
TAF
KRME 160528Z 1606/1706 29012KT P6SM -SHSN SCT015 OVC025
      TEMPO 1606/1608 2SM -SHSN BKN015
     FM160800 31009KT P6SM SCT025 BKN035
     FM161200 30012KT P6SM SCT035
     FM162000 31006KT P6SM SKC
     FM170200 12003KT P6SM FEW250=

USA.gov is the U.S. government's official web portal to all federal, state and local government web resources and services.